sensor_id;sensor_type;location;lat;lon;timestamp;temperature;humidity
12971;DHT22;6550;48.650;8.774;2024-01-06T00:04:12;9.10;99.90
12971;DHT22;6550;48.650;8.774;2024-01-06T00:06:39;9.10;99.90
12971;DHT22;6550;48.650;8.774;2024-01-06T00:09:06;9.20;99.90
12971;DHT22;6550;48.650;8.774;2024-01-06T00:11:35;9.10;99.90
12971;DHT22;6550;48.650;8.774;2024-01-06T00:14:07;9.10;99.90
12971;DHT22;6550;48.650;8.774;2024-01-06T00:16:33;9.20;99.90
12971;DHT22;6550;48.650;8.774;2024-01-06T00:19:02;9.40;99.90
12971;DHT22;6550;48.650;8.774;2024-01-06T00:21:32;9.60;99.90
12971;DHT22;6550;48.650;8.774;2024-01-06T00:23:59;10.10;99.90
12971;DHT22;6550;48.650;8.774;2024-01-06T00:26:26;9.40;99.90
12971;DHT22;6550;48.650;8.774;2024-01-06T00:28:56;9.20;99.90
12971;DHT22;6550;48.650;8.774;2024-01-06T00:31:23;8.80;99.90
12971;DHT22;6550;48.650;8.774;2024-01-06T00:33:52;9.50;99.90
12971;DHT22;6550;48.650;8.774;2024-01-06T00:36:21;9.40;99.90
12971;DHT22;6550;48.650;8.774;2024-01-06T00:38:50;10.20;99.90
12971;DHT22;6550;48.650;8.774;2024-01-06T00:41:17;9.30;99.90
12971;DHT22;6550;48.650;8.774;2024-01-06T00:43:44;9.40;99.90
12971;DHT22;6550;48.650;8.774;2024-01-06T00:46:13;9.30;99.90
12971;DHT22;6550;48.650;8.774;2024-01-06T00:48:39;9.30;99.90
12971;DHT22;6550;48.650;8.774;2024-01-06T00:51:06;9.20;99.90
12971;DHT22;6550;48.650;8.774;2024-01-06T00:53:38;9.20;99.90
12971;DHT22;6550;48.650;8.774;2024-01-06T00:56:05;9.20;99.90
12971;DHT22;6550;48.650;8.774;2024-01-06T00:58:34;9.40;99.90
12971;DHT22;6550;48.650;8.774;2024-01-06T01:01:00;10.20;99.90
12971;DHT22;6550;48.650;8.774;2024-01-06T01:03:30;10.40;99.90
12971;DHT22;6550;48.650;8.774;2024-01-06T01:05:57;9.30;99.90
12971;DHT22;6550;48.650;8.774;2024-01-06T01:08:24;9.40;99.90
12971;DHT22;6550;48.650;8.774;2024-01-06T01:10:55;9.40;99.90
12971;DHT22;6550;48.650;8.774;2024-01-06T01:13:22;9.30;99.90
12971;DHT22;6550;48.650;8.774;2024-01-06T01:15:49;9.70;99.90
12971;DHT22;6550;48.650;8.774;2024-01-06T01:18:16;9.60;99.90
12971;DHT22;6550;48.650;8.774;2024-01-06T01:20:43;10.10;99.90
12971;DHT22;6550;48.650;8.774;2024-01-06T01:23:10;10.40;99.90
12971;DHT22;6550;48.650;8.774;2024-01-06T01:25:36;9.70;99.90
12971;DHT22;6550;48.650;8.774;2024-01-06T01:28:03;9.40;99.90
12971;DHT22;6550;48.650;8.774;2024-01-06T01:30:33;9.30;99.90
12971;DHT22;6550;48.650;8.774;2024-01-06T01:32:59;10.40;99.90
12971;DHT22;6550;48.650;8.774;2024-01-06T01:35:26;9.10;99.90
12971;DHT22;6550;48.650;8.774;2024-01-06T01:37:55;8.90;99.90
12971;DHT22;6550;48.650;8.774;2024-01-06T01:40:22;10.30;99.90
12971;DHT22;6550;48.650;8.774;2024-01-06T01:42:51;9.10;99.90
12971;DHT22;6550;48.650;8.774;2024-01-06T01:45:20;9.00;99.90
12971;DHT22;6550;48.650;8.774;2024-01-06T01:47:47;8.90;99.90
12971;DHT22;6550;48.650;8.774;2024-01-06T01:50:16;9.10;99.90
12971;DHT22;6550;48.650;8.774;2024-01-06T01:52:43;8.80;99.90
12971;DHT22;6550;48.650;8.774;2024-01-06T01:57:40;9.10;99.90
12971;DHT22;6550;48.650;8.774;2024-01-06T02:00:10;9.60;99.90
12971;DHT22;6550;48.650;8.774;2024-01-06T02:02:37;9.20;99.90
12971;DHT22;6550;48.650;8.774;2024-01-06T02:05:05;9.20;99.90
12971;DHT22;6550;48.650;8.774;2024-01-06T02:07:34;9.40;99.90
12971;DHT22;6550;48.650;8.774;2024-01-06T02:10:01;9.50;99.90
12971;DHT22;6550;48.650;8.774;2024-01-06T02:12:32;9.60;99.90
12971;DHT22;6550;48.650;8.774;2024-01-06T02:14:59;9.20;99.90
12971;DHT22;6550;48.650;8.774;2024-01-06T02:17:28;9.20;99.90
12971;DHT22;6550;48.650;8.774;2024-01-06T02:19:57;9.00;99.90
12971;DHT22;6550;48.650;8.774;2024-01-06T02:22:26;9.10;99.90
12971;DHT22;6550;48.650;8.774;2024-01-06T02:24:55;9.10;99.90
12971;DHT22;6550;48.650;8.774;2024-01-06T02:27:24;9.10;99.90
12971;DHT22;6550;48.650;8.774;2024-01-06T02:29:51;9.20;99.90
12971;DHT22;6550;48.650;8.774;2024-01-06T02:32:18;9.20;99.90
12971;DHT22;6550;48.650;8.774;2024-01-06T02:34:45;9.00;99.90
12971;DHT22;6550;48.650;8.774;2024-01-06T02:37:14;9.90;99.90
12971;DHT22;6550;48.650;8.774;2024-01-06T02:39:41;9.80;99.90
12971;DHT22;6550;48.650;8.774;2024-01-06T02:42:07;8.80;99.90
12971;DHT22;6550;48.650;8.774;2024-01-06T02:44:34;8.90;99.90
12971;DHT22;6550;48.650;8.774;2024-01-06T02:47:01;9.00;99.90
12971;DHT22;6550;48.650;8.774;2024-01-06T02:49:30;10.00;99.90
12971;DHT22;6550;48.650;8.774;2024-01-06T02:51:57;8.70;99.90
12971;DHT22;6550;48.650;8.774;2024-01-06T02:54:24;8.90;99.90
12971;DHT22;6550;48.650;8.774;2024-01-06T02:56:51;9.10;99.90
12971;DHT22;6550;48.650;8.774;2024-01-06T02:59:17;9.00;99.90
12971;DHT22;6550;48.650;8.774;2024-01-06T03:01:46;9.00;99.90
12971;DHT22;6550;48.650;8.774;2024-01-06T03:04:18;8.90;99.90
12971;DHT22;6550;48.650;8.774;2024-01-06T03:06:45;9.90;99.90
12971;DHT22;6550;48.650;8.774;2024-01-06T03:09:15;9.00;99.90
12971;DHT22;6550;48.650;8.774;2024-01-06T03:11:43;8.80;99.90
12971;DHT22;6550;48.650;8.774;2024-01-06T03:14:13;8.60;99.90
12971;DHT22;6550;48.650;8.774;2024-01-06T03:16:44;9.30;99.90
12971;DHT22;6550;48.650;8.774;2024-01-06T03:19:11;9.00;99.90
12971;DHT22;6550;48.650;8.774;2024-01-06T03:21:40;9.10;99.90
12971;DHT22;6550;48.650;8.774;2024-01-06T03:24:07;8.40;99.90
12971;DHT22;6550;48.650;8.774;2024-01-06T03:29:02;8.80;99.90
12971;DHT22;6550;48.650;8.774;2024-01-06T03:31:32;8.80;99.90
12971;DHT22;6550;48.650;8.774;2024-01-06T03:34:02;8.70;99.90
12971;DHT22;6550;48.650;8.774;2024-01-06T03:36:29;8.60;99.90
12971;DHT22;6550;48.650;8.774;2024-01-06T03:38:55;8.60;99.90
12971;DHT22;6550;48.650;8.774;2024-01-06T03:41:24;8.50;99.90
12971;DHT22;6550;48.650;8.774;2024-01-06T03:43:51;9.30;99.90
12971;DHT22;6550;48.650;8.774;2024-01-06T03:46:18;8.70;99.90
12971;DHT22;6550;48.650;8.774;2024-01-06T03:48:47;8.70;99.90
12971;DHT22;6550;48.650;8.774;2024-01-06T03:51:16;8.60;99.90
12971;DHT22;6550;48.650;8.774;2024-01-06T03:53:45;8.70;99.90
12971;DHT22;6550;48.650;8.774;2024-01-06T03:56:13;9.30;99.90
12971;DHT22;6550;48.650;8.774;2024-01-06T03:58:42;8.60;99.90
12971;DHT22;6550;48.650;8.774;2024-01-06T04:01:11;8.70;99.90
12971;DHT22;6550;48.650;8.774;2024-01-06T04:03:40;8.50;99.90
12971;DHT22;6550;48.650;8.774;2024-01-06T04:06:09;8.90;99.90
12971;DHT22;6550;48.650;8.774;2024-01-06T04:08:38;10.00;99.90
12971;DHT22;6550;48.650;8.774;2024-01-06T04:11:05;8.80;99.90
12971;DHT22;6550;48.650;8.774;2024-01-06T04:16:01;9.00;99.90
12971;DHT22;6550;48.650;8.774;2024-01-06T04:21:01;8.90;99.90
12971;DHT22;6550;48.650;8.774;2024-01-06T04:23:28;8.90;99.90
12971;DHT22;6550;48.650;8.774;2024-01-06T04:25:57;10.10;99.90
12971;DHT22;6550;48.650;8.774;2024-01-06T04:28:24;8.90;99.90
12971;DHT22;6550;48.650;8.774;2024-01-06T04:30:51;8.90;99.90
12971;DHT22;6550;48.650;8.774;2024-01-06T04:33:18;9.10;99.90
12971;DHT22;6550;48.650;8.774;2024-01-06T04:35:45;8.80;99.90
12971;DHT22;6550;48.650;8.774;2024-01-06T04:38:12;9.20;99.90
12971;DHT22;6550;48.650;8.774;2024-01-06T04:40:39;9.00;99.90
12971;DHT22;6550;48.650;8.774;2024-01-06T04:43:06;9.00;99.90
12971;DHT22;6550;48.650;8.774;2024-01-06T04:48:01;9.10;99.90
12971;DHT22;6550;48.650;8.774;2024-01-06T04:50:30;9.10;99.90
12971;DHT22;6550;48.650;8.774;2024-01-06T04:55:27;9.20;99.90
12971;DHT22;6550;48.650;8.774;2024-01-06T04:57:53;10.10;99.90
12971;DHT22;6550;48.650;8.774;2024-01-06T05:00:23;9.30;99.90
12971;DHT22;6550;48.650;8.774;2024-01-06T05:02:50;9.10;99.90
12971;DHT22;6550;48.650;8.774;2024-01-06T05:05:17;10.10;99.90
12971;DHT22;6550;48.650;8.774;2024-01-06T05:07:43;9.10;99.90
12971;DHT22;6550;48.650;8.774;2024-01-06T05:10:12;9.00;99.90
12971;DHT22;6550;48.650;8.774;2024-01-06T05:12:39;9.50;99.90
12971;DHT22;6550;48.650;8.774;2024-01-06T05:15:06;9.10;99.90
12971;DHT22;6550;48.650;8.774;2024-01-06T05:17:33;9.10;99.90
12971;DHT22;6550;48.650;8.774;2024-01-06T05:20:00;9.80;99.90
12971;DHT22;6550;48.650;8.774;2024-01-06T05:22:27;9.50;99.90
12971;DHT22;6550;48.650;8.774;2024-01-06T05:24:54;9.10;99.90
12971;DHT22;6550;48.650;8.774;2024-01-06T05:27:21;9.20;99.90
12971;DHT22;6550;48.650;8.774;2024-01-06T05:29:47;9.40;99.90
12971;DHT22;6550;48.650;8.774;2024-01-06T05:32:16;9.10;99.90
12971;DHT22;6550;48.650;8.774;2024-01-06T05:34:50;9.10;99.90
12971;DHT22;6550;48.650;8.774;2024-01-06T05:37:17;9.10;99.90
12971;DHT22;6550;48.650;8.774;2024-01-06T05:42:11;9.50;99.90
12971;DHT22;6550;48.650;8.774;2024-01-06T05:44:39;10.00;99.90
12971;DHT22;6550;48.650;8.774;2024-01-06T05:47:06;9.50;99.90
12971;DHT22;6550;48.650;8.774;2024-01-06T05:49:35;9.40;99.90
12971;DHT22;6550;48.650;8.774;2024-01-06T05:52:02;8.60;99.90
12971;DHT22;6550;48.650;8.774;2024-01-06T05:54:28;9.30;99.90
12971;DHT22;6550;48.650;8.774;2024-01-06T05:56:57;9.40;99.90
12971;DHT22;6550;48.650;8.774;2024-01-06T05:59:27;9.30;99.90
12971;DHT22;6550;48.650;8.774;2024-01-06T06:01:54;10.10;99.90
12971;DHT22;6550;48.650;8.774;2024-01-06T06:04:21;9.30;99.90
12971;DHT22;6550;48.650;8.774;2024-01-06T06:09:17;9.30;99.90
12971;DHT22;6550;48.650;8.774;2024-01-06T06:11:47;9.40;99.90
12971;DHT22;6550;48.650;8.774;2024-01-06T06:14:16;9.40;99.90
12971;DHT22;6550;48.650;8.774;2024-01-06T06:16:43;9.10;99.90
12971;DHT22;6550;48.650;8.774;2024-01-06T06:19:12;9.00;99.90
12971;DHT22;6550;48.650;8.774;2024-01-06T06:21:41;9.10;99.90
12971;DHT22;6550;48.650;8.774;2024-01-06T06:24:10;9.30;99.90
12971;DHT22;6550;48.650;8.774;2024-01-06T06:26:37;10.00;99.90
12971;DHT22;6550;48.650;8.774;2024-01-06T06:29:07;10.50;99.90
12971;DHT22;6550;48.650;8.774;2024-01-06T06:31:37;9.60;99.90
12971;DHT22;6550;48.650;8.774;2024-01-06T06:34:08;9.40;99.90
12971;DHT22;6550;48.650;8.774;2024-01-06T06:36:39;9.40;99.90
12971;DHT22;6550;48.650;8.774;2024-01-06T06:39:08;10.30;99.90
12971;DHT22;6550;48.650;8.774;2024-01-06T06:41:35;9.70;99.90
12971;DHT22;6550;48.650;8.774;2024-01-06T06:44:01;9.40;99.90
12971;DHT22;6550;48.650;8.774;2024-01-06T06:46:28;9.30;99.90
12971;DHT22;6550;48.650;8.774;2024-01-06T06:48:55;9.40;99.90
12971;DHT22;6550;48.650;8.774;2024-01-06T06:53:52;9.40;99.90
12971;DHT22;6550;48.650;8.774;2024-01-06T06:56:19;9.50;99.90
12971;DHT22;6550;48.650;8.774;2024-01-06T06:58:45;9.40;99.90
12971;DHT22;6550;48.650;8.774;2024-01-06T07:01:14;9.00;99.90
12971;DHT22;6550;48.650;8.774;2024-01-06T07:03:44;9.00;99.90
12971;DHT22;6550;48.650;8.774;2024-01-06T07:06:14;8.40;99.90
12971;DHT22;6550;48.650;8.774;2024-01-06T07:08:41;9.40;99.90
12971;DHT22;6550;48.650;8.774;2024-01-06T07:11:09;8.90;99.90
12971;DHT22;6550;48.650;8.774;2024-01-06T07:13:37;8.60;99.90
12971;DHT22;6550;48.650;8.774;2024-01-06T07:16:06;9.00;99.90
12971;DHT22;6550;48.650;8.774;2024-01-06T07:21:12;9.00;99.90
12971;DHT22;6550;48.650;8.774;2024-01-06T07:23:42;9.10;99.90
12971;DHT22;6550;48.650;8.774;2024-01-06T07:26:09;9.10;99.90
12971;DHT22;6550;48.650;8.774;2024-01-06T07:28:38;9.70;99.90
12971;DHT22;6550;48.650;8.774;2024-01-06T07:31:07;9.40;99.90
12971;DHT22;6550;48.650;8.774;2024-01-06T07:33:34;10.50;99.90
12971;DHT22;6550;48.650;8.774;2024-01-06T07:36:01;9.50;99.90
12971;DHT22;6550;48.650;8.774;2024-01-06T07:43:27;9.60;99.90
12971;DHT22;6550;48.650;8.774;2024-01-06T07:45:55;9.60;99.90
12971;DHT22;6550;48.650;8.774;2024-01-06T07:48:22;10.90;99.90
12971;DHT22;6550;48.650;8.774;2024-01-06T07:50:50;10.10;99.90
12971;DHT22;6550;48.650;8.774;2024-01-06T07:58:11;9.80;99.90
12971;DHT22;6550;48.650;8.774;2024-01-06T08:00:40;9.80;99.90
12971;DHT22;6550;48.650;8.774;2024-01-06T08:03:10;10.30;99.90
12971;DHT22;6550;48.650;8.774;2024-01-06T08:05:38;9.90;99.90
12971;DHT22;6550;48.650;8.774;2024-01-06T08:08:05;9.70;99.90
12971;DHT22;6550;48.650;8.774;2024-01-06T08:10:32;9.80;99.90
12971;DHT22;6550;48.650;8.774;2024-01-06T08:17:53;10.10;99.90
12971;DHT22;6550;48.650;8.774;2024-01-06T08:22:52;9.90;99.90
12971;DHT22;6550;48.650;8.774;2024-01-06T08:25:19;10.00;99.90
12971;DHT22;6550;48.650;8.774;2024-01-06T08:27:46;9.90;99.90
12971;DHT22;6550;48.650;8.774;2024-01-06T08:30:15;10.20;99.90
12971;DHT22;6550;48.650;8.774;2024-01-06T08:32:47;10.20;99.90
12971;DHT22;6550;48.650;8.774;2024-01-06T08:35:16;10.90;99.90
12971;DHT22;6550;48.650;8.774;2024-01-06T08:37:43;11.00;99.90
12971;DHT22;6550;48.650;8.774;2024-01-06T08:40:11;10.70;99.90
12971;DHT22;6550;48.650;8.774;2024-01-06T08:42:38;11.20;99.90
12971;DHT22;6550;48.650;8.774;2024-01-06T08:45:07;10.50;99.90
12971;DHT22;6550;48.650;8.774;2024-01-06T08:47:34;10.60;99.90
12971;DHT22;6550;48.650;8.774;2024-01-06T08:50:01;11.30;99.90
12971;DHT22;6550;48.650;8.774;2024-01-06T08:52:30;9.90;99.90
12971;DHT22;6550;48.650;8.774;2024-01-06T08:54:57;11.30;99.90
12971;DHT22;6550;48.650;8.774;2024-01-06T08:57:24;10.80;99.90
12971;DHT22;6550;48.650;8.774;2024-01-06T08:59:53;10.90;99.90
12971;DHT22;6550;48.650;8.774;2024-01-06T09:02:20;9.90;99.90
12971;DHT22;6550;48.650;8.774;2024-01-06T09:07:14;10.50;99.90
12971;DHT22;6550;48.650;8.774;2024-01-06T09:09:41;10.00;99.90
12971;DHT22;6550;48.650;8.774;2024-01-06T09:17:03;10.50;99.90
12971;DHT22;6550;48.650;8.774;2024-01-06T09:19:32;10.50;99.90
12971;DHT22;6550;48.650;8.774;2024-01-06T09:22:00;10.70;99.90
12971;DHT22;6550;48.650;8.774;2024-01-06T09:24:27;11.20;99.90
12971;DHT22;6550;48.650;8.774;2024-01-06T09:26:57;11.30;99.90
12971;DHT22;6550;48.650;8.774;2024-01-06T09:29:23;10.80;99.90
12971;DHT22;6550;48.650;8.774;2024-01-06T09:31:50;12.60;99.90
12971;DHT22;6550;48.650;8.774;2024-01-06T09:34:17;11.60;99.90
12971;DHT22;6550;48.650;8.774;2024-01-06T09:39:11;11.90;99.90
12971;DHT22;6550;48.650;8.774;2024-01-06T09:41:40;12.00;99.90
12971;DHT22;6550;48.650;8.774;2024-01-06T09:44:08;12.00;99.90
12971;DHT22;6550;48.650;8.774;2024-01-06T09:46:41;12.20;99.90
12971;DHT22;6550;48.650;8.774;2024-01-06T09:49:13;12.20;99.90
12971;DHT22;6550;48.650;8.774;2024-01-06T09:54:09;13.60;99.90
12971;DHT22;6550;48.650;8.774;2024-01-06T09:56:39;13.80;99.90
12971;DHT22;6550;48.650;8.774;2024-01-06T09:59:06;14.00;99.90
12971;DHT22;6550;48.650;8.774;2024-01-06T10:01:35;14.10;99.90
12971;DHT22;6550;48.650;8.774;2024-01-06T10:04:02;14.00;99.90
12971;DHT22;6550;48.650;8.774;2024-01-06T10:06:30;14.20;99.90
12971;DHT22;6550;48.650;8.774;2024-01-06T10:11:24;12.30;99.90
12971;DHT22;6550;48.650;8.774;2024-01-06T10:13:51;12.90;99.90
12971;DHT22;6550;48.650;8.774;2024-01-06T10:16:19;12.30;99.90
12971;DHT22;6550;48.650;8.774;2024-01-06T10:18:46;12.90;99.90
12971;DHT22;6550;48.650;8.774;2024-01-06T10:21:22;12.50;99.90
12971;DHT22;6550;48.650;8.774;2024-01-06T10:26:20;12.70;99.90
12971;DHT22;6550;48.650;8.774;2024-01-06T10:28:51;12.80;99.90
12971;DHT22;6550;48.650;8.774;2024-01-06T10:31:18;12.70;99.90
12971;DHT22;6550;48.650;8.774;2024-01-06T10:33:45;13.30;99.90
12971;DHT22;6550;48.650;8.774;2024-01-06T10:36:13;12.60;99.90
12971;DHT22;6550;48.650;8.774;2024-01-06T10:38:43;15.00;99.90
12971;DHT22;6550;48.650;8.774;2024-01-06T10:41:11;12.90;99.90
12971;DHT22;6550;48.650;8.774;2024-01-06T10:46:10;12.50;99.90
12971;DHT22;6550;48.650;8.774;2024-01-06T10:48:38;12.30;99.90
12971;DHT22;6550;48.650;8.774;2024-01-06T10:51:11;13.00;99.90
12971;DHT22;6550;48.650;8.774;2024-01-06T10:53:42;12.60;99.90
12971;DHT22;6550;48.650;8.774;2024-01-06T10:56:11;13.50;99.90
12971;DHT22;6550;48.650;8.774;2024-01-06T10:58:43;12.60;99.90
12971;DHT22;6550;48.650;8.774;2024-01-06T11:01:14;12.50;99.90
12971;DHT22;6550;48.650;8.774;2024-01-06T11:03:48;12.30;99.90
12971;DHT22;6550;48.650;8.774;2024-01-06T11:08:59;12.40;99.90
12971;DHT22;6550;48.650;8.774;2024-01-06T11:11:28;12.60;99.90
12971;DHT22;6550;48.650;8.774;2024-01-06T11:14:24;13.60;99.90
12971;DHT22;6550;48.650;8.774;2024-01-06T11:16:52;13.20;99.90
12971;DHT22;6550;48.650;8.774;2024-01-06T11:22:24;14.30;99.90
12971;DHT22;6550;48.650;8.774;2024-01-06T11:24:52;13.90;99.90
12971;DHT22;6550;48.650;8.774;2024-01-06T11:27:31;13.80;99.90
12971;DHT22;6550;48.650;8.774;2024-01-06T11:30:00;14.00;99.90
12971;DHT22;6550;48.650;8.774;2024-01-06T11:32:39;14.90;99.90
12971;DHT22;6550;48.650;8.774;2024-01-06T11:35:09;13.20;99.90
12971;DHT22;6550;48.650;8.774;2024-01-06T11:37:51;12.90;99.90
12971;DHT22;6550;48.650;8.774;2024-01-06T11:45:31;12.70;99.90
12971;DHT22;6550;48.650;8.774;2024-01-06T11:48:05;13.00;99.90
12971;DHT22;6550;48.650;8.774;2024-01-06T11:50:37;12.80;99.90
12971;DHT22;6550;48.650;8.774;2024-01-06T11:53:05;12.80;99.90
12971;DHT22;6550;48.650;8.774;2024-01-06T11:55:33;12.60;99.90
12971;DHT22;6550;48.650;8.774;2024-01-06T11:58:02;12.80;99.90
12971;DHT22;6550;48.650;8.774;2024-01-06T12:00:34;12.80;99.90
12971;DHT22;6550;48.650;8.774;2024-01-06T12:05:33;12.90;99.90
12971;DHT22;6550;48.650;8.774;2024-01-06T12:08:03;12.50;99.90
12971;DHT22;6550;48.650;8.774;2024-01-06T12:13:06;13.10;99.90
12971;DHT22;6550;48.650;8.774;2024-01-06T12:18:11;13.20;99.90
12971;DHT22;6550;48.650;8.774;2024-01-06T12:20:38;13.60;99.90
12971;DHT22;6550;48.650;8.774;2024-01-06T12:25:35;13.20;99.90
12971;DHT22;6550;48.650;8.774;2024-01-06T12:30:38;13.10;99.90
12971;DHT22;6550;48.650;8.774;2024-01-06T12:33:07;13.20;99.90
12971;DHT22;6550;48.650;8.774;2024-01-06T12:35:36;13.30;99.90
12971;DHT22;6550;48.650;8.774;2024-01-06T12:38:06;14.40;99.90
12971;DHT22;6550;48.650;8.774;2024-01-06T12:40:37;14.10;99.90
12971;DHT22;6550;48.650;8.774;2024-01-06T12:43:07;13.50;99.90
12971;DHT22;6550;48.650;8.774;2024-01-06T12:45:34;13.50;99.90
12971;DHT22;6550;48.650;8.774;2024-01-06T12:48:01;13.40;99.90
12971;DHT22;6550;48.650;8.774;2024-01-06T12:50:28;13.40;99.90
12971;DHT22;6550;48.650;8.774;2024-01-06T12:52:55;13.50;99.90
12971;DHT22;6550;48.650;8.774;2024-01-06T12:55:21;13.60;99.90
12971;DHT22;6550;48.650;8.774;2024-01-06T12:57:53;13.80;99.90
12971;DHT22;6550;48.650;8.774;2024-01-06T13:00:20;13.90;99.90
12971;DHT22;6550;48.650;8.774;2024-01-06T13:02:47;13.40;99.90
12971;DHT22;6550;48.650;8.774;2024-01-06T13:05:13;13.20;99.90
12971;DHT22;6550;48.650;8.774;2024-01-06T13:07:43;13.30;99.90
12971;DHT22;6550;48.650;8.774;2024-01-06T13:10:09;13.60;99.90
12971;DHT22;6550;48.650;8.774;2024-01-06T13:12:39;14.00;99.90
12971;DHT22;6550;48.650;8.774;2024-01-06T13:15:08;13.30;99.90
12971;DHT22;6550;48.650;8.774;2024-01-06T13:17:38;13.00;99.90
12971;DHT22;6550;48.650;8.774;2024-01-06T13:20:05;12.70;99.90
12971;DHT22;6550;48.650;8.774;2024-01-06T13:22:35;12.60;99.90
12971;DHT22;6550;48.650;8.774;2024-01-06T13:25:01;12.60;99.90
12971;DHT22;6550;48.650;8.774;2024-01-06T13:27:34;12.60;99.90
12971;DHT22;6550;48.650;8.774;2024-01-06T13:30:03;12.70;99.90
12971;DHT22;6550;48.650;8.774;2024-01-06T13:32:32;12.60;99.90
12971;DHT22;6550;48.650;8.774;2024-01-06T13:35:01;13.40;99.90
12971;DHT22;6550;48.650;8.774;2024-01-06T13:37:33;12.60;99.90
12971;DHT22;6550;48.650;8.774;2024-01-06T13:40:00;12.80;99.90
12971;DHT22;6550;48.650;8.774;2024-01-06T13:42:27;12.70;99.90
12971;DHT22;6550;48.650;8.774;2024-01-06T13:44:56;12.60;99.90
12971;DHT22;6550;48.650;8.774;2024-01-06T13:47:26;12.50;99.90
12971;DHT22;6550;48.650;8.774;2024-01-06T13:49:53;12.10;99.90
12971;DHT22;6550;48.650;8.774;2024-01-06T13:54:49;12.20;99.90
12971;DHT22;6550;48.650;8.774;2024-01-06T13:57:20;12.20;99.90
12971;DHT22;6550;48.650;8.774;2024-01-06T13:59:49;12.70;99.90
12971;DHT22;6550;48.650;8.774;2024-01-06T14:02:16;12.30;99.90
12971;DHT22;6550;48.650;8.774;2024-01-06T14:04:44;12.00;99.90
12971;DHT22;6550;48.650;8.774;2024-01-06T14:07:11;14.40;99.90
12971;DHT22;6550;48.650;8.774;2024-01-06T14:09:40;11.80;99.90
12971;DHT22;6550;48.650;8.774;2024-01-06T14:12:07;13.50;99.90
12971;DHT22;6550;48.650;8.774;2024-01-06T14:17:01;12.00;99.90
12971;DHT22;6550;48.650;8.774;2024-01-06T14:19:30;11.90;99.90
12971;DHT22;6550;48.650;8.774;2024-01-06T14:21:57;12.70;99.90
12971;DHT22;6550;48.650;8.774;2024-01-06T14:24:26;12.30;99.90
12971;DHT22;6550;48.650;8.774;2024-01-06T14:26:56;12.10;99.90
12971;DHT22;6550;48.650;8.774;2024-01-06T14:29:23;11.60;99.90
12971;DHT22;6550;48.650;8.774;2024-01-06T14:31:50;12.20;99.90
12971;DHT22;6550;48.650;8.774;2024-01-06T14:34:19;13.60;99.90
12971;DHT22;6550;48.650;8.774;2024-01-06T14:36:51;13.20;99.90
12971;DHT22;6550;48.650;8.774;2024-01-06T14:39:20;12.70;99.90
12971;DHT22;6550;48.650;8.774;2024-01-06T14:41:50;12.70;99.90
12971;DHT22;6550;48.650;8.774;2024-01-06T14:44:18;12.70;99.90
12971;DHT22;6550;48.650;8.774;2024-01-06T14:46:47;12.70;99.90
12971;DHT22;6550;48.650;8.774;2024-01-06T14:49:14;12.00;99.90
12971;DHT22;6550;48.650;8.774;2024-01-06T14:51:45;12.10;99.90
12971;DHT22;6550;48.650;8.774;2024-01-06T14:54:15;12.10;99.90
12971;DHT22;6550;48.650;8.774;2024-01-06T14:56:44;12.20;99.90
12971;DHT22;6550;48.650;8.774;2024-01-06T15:01:45;12.10;99.90
12971;DHT22;6550;48.650;8.774;2024-01-06T15:04:14;11.90;99.90
12971;DHT22;6550;48.650;8.774;2024-01-06T15:06:42;12.00;99.90
12971;DHT22;6550;48.650;8.774;2024-01-06T15:09:10;11.80;99.90
12971;DHT22;6550;48.650;8.774;2024-01-06T15:11:39;12.50;99.90
12971;DHT22;6550;48.650;8.774;2024-01-06T15:14:06;12.10;99.90
12971;DHT22;6550;48.650;8.774;2024-01-06T15:16:35;12.10;99.90
12971;DHT22;6550;48.650;8.774;2024-01-06T15:21:31;12.20;99.90
12971;DHT22;6550;48.650;8.774;2024-01-06T15:24:01;12.20;99.90
12971;DHT22;6550;48.650;8.774;2024-01-06T15:28:57;11.90;99.90
12971;DHT22;6550;48.650;8.774;2024-01-06T15:31:29;11.80;99.90
12971;DHT22;6550;48.650;8.774;2024-01-06T15:33:56;12.00;99.90
12971;DHT22;6550;48.650;8.774;2024-01-06T15:36:25;13.20;99.90
12971;DHT22;6550;48.650;8.774;2024-01-06T15:38:54;12.80;99.90
12971;DHT22;6550;48.650;8.774;2024-01-06T15:41:23;11.40;99.90
12971;DHT22;6550;48.650;8.774;2024-01-06T15:43:50;11.50;99.90
12971;DHT22;6550;48.650;8.774;2024-01-06T15:51:14;11.60;99.90
12971;DHT22;6550;48.650;8.774;2024-01-06T15:56:09;11.40;99.90
12971;DHT22;6550;48.650;8.774;2024-01-06T15:58:38;11.00;99.90
12971;DHT22;6550;48.650;8.774;2024-01-06T16:01:07;10.40;99.90
12971;DHT22;6550;48.650;8.774;2024-01-06T16:03:34;12.50;99.90
12971;DHT22;6550;48.650;8.774;2024-01-06T16:08:28;10.90;99.90
12971;DHT22;6550;48.650;8.774;2024-01-06T16:10:55;10.40;99.90
12971;DHT22;6550;48.650;8.774;2024-01-06T16:13:27;10.80;99.90
12971;DHT22;6550;48.650;8.774;2024-01-06T16:15:54;11.60;99.90
12971;DHT22;6550;48.650;8.774;2024-01-06T16:20:48;12.70;99.90
12971;DHT22;6550;48.650;8.774;2024-01-06T16:23:15;12.40;99.90
12971;DHT22;6550;48.650;8.774;2024-01-06T16:25:43;11.60;99.90
12971;DHT22;6550;48.650;8.774;2024-01-06T16:28:10;11.70;99.90
12971;DHT22;6550;48.650;8.774;2024-01-06T16:30:40;12.90;99.90
12971;DHT22;6550;48.650;8.774;2024-01-06T16:33:08;11.50;99.90
12971;DHT22;6550;48.650;8.774;2024-01-06T16:35:35;11.70;99.90
12971;DHT22;6550;48.650;8.774;2024-01-06T16:38:06;11.30;99.90
12971;DHT22;6550;48.650;8.774;2024-01-06T16:40:38;11.20;99.90
12971;DHT22;6550;48.650;8.774;2024-01-06T16:45:34;11.20;99.90
12971;DHT22;6550;48.650;8.774;2024-01-06T16:48:01;11.10;99.90
12971;DHT22;6550;48.650;8.774;2024-01-06T16:50:32;12.10;99.90
12971;DHT22;6550;48.650;8.774;2024-01-06T16:53:06;11.30;99.90
12971;DHT22;6550;48.650;8.774;2024-01-06T16:55:33;11.40;99.90
12971;DHT22;6550;48.650;8.774;2024-01-06T16:58:02;12.10;99.90
12971;DHT22;6550;48.650;8.774;2024-01-06T17:00:29;11.60;99.90
12971;DHT22;6550;48.650;8.774;2024-01-06T17:02:59;11.70;99.90
12971;DHT22;6550;48.650;8.774;2024-01-06T17:08:00;11.90;99.90
12971;DHT22;6550;48.650;8.774;2024-01-06T17:10:26;12.10;99.90
12971;DHT22;6550;48.650;8.774;2024-01-06T17:12:53;11.40;99.90
12971;DHT22;6550;48.650;8.774;2024-01-06T17:15:23;11.80;99.90
12971;DHT22;6550;48.650;8.774;2024-01-06T17:17:52;12.10;99.90
12971;DHT22;6550;48.650;8.774;2024-01-06T17:20:22;12.10;99.90
12971;DHT22;6550;48.650;8.774;2024-01-06T17:22:49;12.20;99.90
12971;DHT22;6550;48.650;8.774;2024-01-06T17:25:16;12.20;99.90
12971;DHT22;6550;48.650;8.774;2024-01-06T17:27:43;11.80;99.90
12971;DHT22;6550;48.650;8.774;2024-01-06T17:30:14;11.70;99.90
12971;DHT22;6550;48.650;8.774;2024-01-06T17:32:42;11.70;99.90
12971;DHT22;6550;48.650;8.774;2024-01-06T17:35:09;11.70;99.90
12971;DHT22;6550;48.650;8.774;2024-01-06T17:37:36;11.60;99.90
12971;DHT22;6550;48.650;8.774;2024-01-06T17:40:03;11.60;99.90
12971;DHT22;6550;48.650;8.774;2024-01-06T17:42:31;11.50;99.90
12971;DHT22;6550;48.650;8.774;2024-01-06T17:44:59;11.60;99.90
12971;DHT22;6550;48.650;8.774;2024-01-06T17:47:28;11.60;99.90
12971;DHT22;6550;48.650;8.774;2024-01-06T17:49:55;11.90;99.90
12971;DHT22;6550;48.650;8.774;2024-01-06T17:52:21;12.30;99.90
12971;DHT22;6550;48.650;8.774;2024-01-06T17:54:52;13.20;99.90
12971;DHT22;6550;48.650;8.774;2024-01-06T17:57:19;12.30;99.90